createdAt,value
2023-02-15T00:08:57.011Z,247.37
2023-02-15T00:19:03.161Z,253.40
2023-02-15T00:29:06.854Z,250.57
2023-02-15T00:39:12.558Z,255.07
2023-02-15T00:49:16.323Z,240.07
2023-02-15T00:59:21.545Z,237.27
2023-02-15T01:09:25.562Z,228.87
2023-02-15T01:19:30.707Z,243.50
2023-02-15T01:29:34.684Z,246.00
2023-02-15T01:39:39.929Z,226.30
2023-02-15T01:49:46.628Z,221.23
2023-02-15T01:59:54.543Z,220.57
2023-02-15T02:09:58.621Z,225.57
2023-02-15T02:20:29.200Z,223.47
2023-02-15T02:31:17.681Z,222.63
2023-02-15T02:41:34.154Z,221.33
2023-02-15T02:51:39.029Z,216.27
2023-02-15T03:01:49.227Z,221.97
2023-02-15T03:11:54.759Z,218.93
2023-02-15T03:22:10.403Z,220.70
2023-02-15T03:32:17.063Z,216.43
2023-02-15T03:42:28.709Z,215.27
2023-02-15T03:52:36.209Z,210.93
2023-02-15T04:02:50.111Z,216.20
2023-02-15T04:12:53.982Z,215.80
2023-02-15T04:23:16.618Z,209.60
2023-02-15T04:33:20.399Z,216.73
2023-02-15T04:43:25.574Z,216.87
2023-02-15T04:53:29.369Z,211.57
2023-02-15T05:03:35.087Z,218.70
2023-02-15T05:13:38.904Z,206.83
2023-02-15T05:23:44.173Z,214.77
2023-02-15T05:33:48.221Z,216.20
2023-02-15T05:43:53.575Z,217.30
2023-02-15T05:53:57.371Z,217.57
2023-02-15T06:04:02.624Z,219.97
2023-02-15T06:14:06.342Z,217.70
2023-02-15T06:24:12.301Z,213.37
2023-02-15T06:34:16.138Z,219.90
2023-02-15T06:44:21.548Z,214.77
2023-02-15T06:54:25.522Z,207.13
2023-02-15T07:04:31.139Z,216.30
2023-02-15T07:14:34.896Z,220.83
2023-02-15T07:24:40.085Z,222.50
2023-02-15T07:34:43.846Z,221.70
2023-02-15T07:44:49.274Z,208.67
2023-02-15T07:54:53.134Z,210.17
2023-02-15T08:04:58.398Z,219.87
2023-02-15T08:15:02.080Z,217.83
2023-02-15T08:25:07.995Z,228.97
2023-02-15T08:35:11.560Z,233.30
2023-02-15T08:45:16.534Z,235.90
2023-02-15T08:55:20.043Z,237.30
2023-02-15T09:05:25.308Z,237.90
2023-02-15T09:15:29.065Z,234.67
2023-02-15T09:25:33.877Z,232.83
2023-02-15T09:35:37.423Z,232.23
2023-02-15T09:46:18.607Z,229.67
2023-02-15T09:56:38.066Z,239.33
2023-02-15T10:06:50.628Z,236.90
2023-02-15T10:17:04.323Z,235.32
2023-02-15T10:27:15.792Z,240.45
2023-02-15T10:37:49.505Z,232.48
2023-02-15T10:48:12.959Z,242.15
2023-02-15T10:58:38.332Z,236.88
2023-02-15T11:08:47.976Z,231.63
2023-02-15T11:18:57.568Z,238.43
2023-02-15T11:29:12.165Z,229.65
2023-02-15T11:39:32.860Z,235.55
2023-02-15T11:49:41.676Z,225.73
2023-02-15T11:59:53.386Z,232.10
2023-02-15T12:10:14.944Z,224.70
2023-02-15T12:20:30.801Z,228.50
2023-02-15T12:30:39.534Z,213.77
2023-02-15T12:40:44.005Z,219.27
2023-02-15T12:50:55.145Z,227.32
2023-02-15T13:01:14.152Z,227.35
2023-02-15T13:11:30.300Z,226.00
2023-02-15T13:21:39.833Z,227.13
2023-02-15T13:31:46.914Z,231.77
2023-02-15T13:42:00.723Z,226.13
2023-02-15T13:52:20.013Z,237.75
2023-02-15T14:03:07.996Z,238.18
2023-02-15T14:13:52.871Z,235.55
2023-02-15T14:24:14.188Z,241.25
2023-02-15T14:34:26.744Z,240.85
2023-02-15T14:44:38.829Z,245.73
2023-02-15T14:55:37.346Z,239.60
2023-02-15T15:05:52.551Z,248.60
2023-02-15T15:15:57.580Z,247.30
2023-02-15T15:26:34.374Z,254.73
2023-02-15T15:37:46.689Z,243.10
2023-02-15T15:48:07.611Z,237.80
2023-02-15T15:58:19.489Z,248.43
2023-02-15T16:08:30.857Z,240.33
2023-02-15T16:18:39.963Z,240.30
2023-02-15T16:28:51.292Z,241.87
2023-02-15T16:39:20.666Z,240.27
2023-02-15T16:49:28.015Z,245.63
2023-02-15T16:59:38.363Z,235.70
2023-02-15T17:09:52.737Z,233.77
2023-02-15T17:19:58.009Z,240.40
2023-02-15T17:30:03.898Z,238.23
2023-02-15T17:40:22.551Z,235.07
2023-02-15T17:50:29.794Z,230.23
2023-02-15T18:00:57.390Z,227.30
2023-02-15T18:11:19.852Z,224.63
2023-02-15T18:21:26.207Z,224.27
2023-02-15T18:31:30.041Z,230.87
2023-02-15T18:41:35.156Z,237.50
2023-02-15T18:51:40.353Z,231.33
2023-02-15T19:01:45.686Z,232.30
2023-02-15T19:11:53.185Z,221.13
2023-02-15T19:21:58.369Z,234.40
2023-02-15T19:32:02.074Z,240.87
2023-02-15T19:42:07.764Z,242.37
2023-02-15T19:52:19.513Z,241.97
2023-02-15T20:02:24.428Z,250.00
2023-02-15T20:12:29.877Z,251.97
2023-02-15T20:22:34.933Z,251.97
2023-02-15T20:32:38.788Z,250.60
2023-02-15T20:42:44.728Z,250.47
2023-02-15T20:52:50.153Z,240.20
2023-02-15T21:02:59.483Z,253.80
2023-02-15T21:13:04.629Z,237.40
2023-02-15T21:23:15.412Z,272.17
2023-02-15T21:33:19.882Z,273.77
2023-02-15T21:43:43.769Z,293.50
2023-02-15T21:53:48.576Z,293.43
2023-02-15T22:03:54.810Z,266.13
2023-02-15T22:13:58.671Z,252.03
2023-02-15T22:24:03.629Z,286.17
2023-02-15T22:34:07.337Z,311.27
2023-02-15T22:44:14.341Z,317.00
2023-02-15T22:54:18.794Z,306.63
2023-02-15T23:04:27.420Z,308.17
2023-02-15T23:14:36.809Z,304.10
2023-02-15T23:24:42.666Z,301.33
2023-02-15T23:34:46.534Z,293.93
2023-02-15T23:44:51.748Z,292.77
2023-02-15T23:54:55.539Z,302.87
